createdAt,value
2018-01-11T00:00:17.869Z,99.01
2018-01-11T00:01:27.561Z,99.29
2018-01-11T00:02:37.532Z,99.29
2018-01-11T00:03:47.483Z,99.1
2018-01-11T00:04:57.184Z,98.63
2018-01-11T00:06:07.137Z,99.29
2018-01-11T00:07:17.101Z,99.19
2018-01-11T00:08:27.152Z,98.44
2018-01-11T00:09:37.095Z,99.38
2018-01-11T00:10:47.036Z,98.63
2018-01-11T00:11:56.986Z,99.01
2018-01-11T00:13:06.934Z,99.01
2018-01-11T00:14:16.881Z,98.91
2018-01-11T00:15:26.821Z,98.91
2018-01-11T00:16:36.769Z,98.72
2018-01-11T00:17:46.725Z,98.82
2018-01-11T00:18:56.675Z,98.82
2018-01-11T00:20:06.679Z,99.19
2018-01-11T00:21:16.375Z,98.91
2018-01-11T00:22:26.325Z,99.1
2018-01-11T00:23:36.289Z,98.82
2018-01-11T00:24:46.248Z,98.91
2018-01-11T00:25:56.248Z,99.01
2018-01-11T00:27:06.208Z,98.91
2018-01-11T00:28:16.164Z,98.82
2018-01-11T00:29:26.131Z,99.1
2018-01-11T00:30:36.093Z,98.91
2018-01-11T00:31:46.046Z,99.19
2018-01-11T00:32:55.736Z,98.91
2018-01-11T00:34:05.688Z,99.01
2018-01-11T00:35:15.375Z,98.72
2018-01-11T00:36:25.379Z,99.29
2018-01-11T00:37:35.331Z,99.99
2018-01-11T00:38:45.283Z,99.95
2018-01-11T00:39:54.984Z,99.95
2018-01-11T00:41:04.428Z,99.85
2018-01-11T00:42:14.136Z,99.66
2018-01-11T00:43:23.827Z,99.95
2018-01-11T00:44:33.784Z,99.95
2018-01-11T00:45:43.729Z,99.57
2018-01-11T00:46:53.669Z,99.66
2018-01-11T00:48:03.624Z,99.85
2018-01-11T00:49:13.340Z,99.85
2018-01-11T00:50:23.286Z,99.76
2018-01-11T00:51:32.970Z,99.85
2018-01-11T00:52:42.965Z,99.99
2018-01-11T00:53:52.401Z,99.95
2018-01-11T00:55:02.103Z,99.85
2018-01-11T00:56:12.041Z,99.57
2018-01-11T00:57:21.737Z,99.66
2018-01-11T00:58:31.169Z,99.57
2018-01-11T00:59:41.118Z,99.85
2018-01-11T01:00:51.062Z,99.85
2018-01-11T01:02:00.772Z,99.66
2018-01-11T01:03:10.457Z,99.95
2018-01-11T01:04:20.142Z,99.85
2018-01-11T01:05:29.827Z,99.76
2018-01-11T01:06:39.774Z,99.95
2018-01-11T01:07:49.724Z,99.85
2018-01-11T01:08:59.703Z,99.85
2018-01-11T01:10:09.654Z,99.99
2018-01-11T01:11:19.602Z,99.85
2018-01-11T01:12:29.541Z,99.76
2018-01-11T01:13:39.474Z,99.99
2018-01-11T01:14:49.156Z,99.95
2018-01-11T01:15:58.854Z,99.99
2018-01-11T01:17:08.811Z,99.99
2018-01-11T01:18:18.498Z,99.99
2018-01-11T01:19:28.457Z,99.99
2018-01-11T01:20:38.407Z,99.99
2018-01-11T01:21:48.096Z,99.99
2018-01-11T01:22:57.781Z,99.95
2018-01-11T01:24:07.725Z,99.99
2018-01-11T01:25:17.415Z,99.99
2018-01-11T01:26:27.369Z,99.99
2018-01-11T01:27:37.056Z,99.99
2018-01-11T01:28:47.059Z,99.99
2018-01-11T01:29:56.744Z,99.99
2018-01-11T01:31:06.436Z,99.99
2018-01-11T01:32:16.382Z,99.99
2018-01-11T01:33:26.084Z,99.99
2018-01-11T01:34:35.527Z,99.99
2018-01-11T01:35:45.480Z,99.99
2018-01-11T01:36:55.420Z,99.85
2018-01-11T01:38:05.163Z,99.99
2018-01-11T01:39:15.112Z,99.85
2018-01-11T01:40:25.052Z,99.95
2018-01-11T01:41:35.004Z,99.99
2018-01-11T01:42:44.942Z,99.99
2018-01-11T01:43:54.896Z,99.99
2018-01-11T01:45:04.606Z,99.99
2018-01-11T01:46:14.575Z,99.99
2018-01-11T01:47:24.529Z,99.99
2018-01-11T01:48:33.948Z,99.99
2018-01-11T01:49:43.384Z,99.99
2018-01-11T01:50:53.077Z,99.99
2018-01-11T01:52:03.021Z,99.99
2018-01-11T01:53:12.967Z,99.99
2018-01-11T01:54:22.915Z,99.99
2018-01-11T01:55:32.862Z,99.99
2018-01-11T01:56:42.826Z,99.99
2018-01-11T01:57:52.513Z,99.99
2018-01-11T01:59:02.462Z,99.99
2018-01-11T02:00:12.422Z,99.99
2018-01-11T02:01:22.122Z,99.99
2018-01-11T02:02:32.070Z,99.99
2018-01-11T02:03:42.036Z,99.99
2018-01-11T02:04:51.731Z,99.99
2018-01-11T02:06:01.672Z,99.99
2018-01-11T02:07:11.420Z,99.99
2018-01-11T02:08:21.113Z,99.99
2018-01-11T02:09:31.060Z,99.99
2018-01-11T02:10:40.757Z,99.99
2018-01-11T02:11:50.704Z,99.99
2018-01-11T02:13:00.650Z,99.99
2018-01-11T02:14:10.339Z,99.99
2018-01-11T02:15:20.303Z,99.99
2018-01-11T02:16:30.261Z,99.99
2018-01-11T02:17:39.944Z,99.99
2018-01-11T02:18:49.908Z,99.99
2018-01-11T02:19:59.849Z,99.99
2018-01-11T02:21:09.806Z,99.99
2018-01-11T02:22:19.756Z,99.99
2018-01-11T02:23:29.706Z,99.99
2018-01-11T02:24:39.651Z,99.99
2018-01-11T02:25:49.598Z,99.99
2018-01-11T02:26:59.550Z,99.99
2018-01-11T02:28:09.500Z,99.99
2018-01-11T02:29:19.446Z,99.99
2018-01-11T02:30:29.453Z,99.99
2018-01-11T02:31:39.404Z,99.99
2018-01-11T02:32:49.352Z,99.99
2018-01-11T02:33:59.293Z,99.99
2018-01-11T02:35:09.243Z,99.99
2018-01-11T02:36:19.193Z,99.99
2018-01-11T02:37:29.223Z,99.99
2018-01-11T02:38:39.189Z,99.99
2018-01-11T02:39:49.135Z,99.99
2018-01-11T02:40:58.833Z,99.99
2018-01-11T02:42:08.785Z,99.99
2018-01-11T02:43:18.483Z,99.99
2018-01-11T02:44:28.449Z,99.99
2018-01-11T02:45:38.151Z,99.99
2018-01-11T02:46:48.386Z,99.99
2018-01-11T02:47:58.625Z,99.99
2018-01-11T02:49:08.575Z,99.99
2018-01-11T02:50:18.329Z,99.99
2018-01-11T02:51:28.268Z,99.99
2018-01-11T02:52:38.201Z,99.99
2018-01-11T02:53:48.158Z,99.99
2018-01-11T02:54:58.100Z,99.99
2018-01-11T02:56:08.043Z,99.99
2018-01-11T02:57:18.004Z,99.99
2018-01-11T02:58:27.973Z,99.99
2018-01-11T02:59:37.925Z,99.99
2018-01-11T03:00:47.633Z,99.99
2018-01-11T03:01:57.596Z,99.99
2018-01-11T03:03:07.544Z,99.99
2018-01-11T03:04:16.967Z,99.99
2018-01-11T03:05:26.910Z,99.99
2018-01-11T03:06:36.599Z,99.99
2018-01-11T03:07:46.539Z,99.99
2018-01-11T03:08:56.478Z,99.99
2018-01-11T03:10:06.437Z,99.99
2018-01-11T03:11:16.386Z,99.99
2018-01-11T03:12:25.843Z,99.99
2018-01-11T03:13:35.789Z,99.99
2018-01-11T03:14:45.728Z,99.99
2018-01-11T03:15:55.161Z,99.99
2018-01-11T03:17:05.110Z,99.99
2018-01-11T03:18:14.796Z,99.99
2018-01-11T03:19:24.738Z,99.99
2018-01-11T03:20:34.678Z,99.99
2018-01-11T03:21:44.364Z,99.99
2018-01-11T03:22:54.310Z,99.99
2018-01-11T03:24:03.996Z,99.99
2018-01-11T03:25:13.418Z,99.99
2018-01-11T03:26:23.474Z,99.99
2018-01-11T03:27:33.173Z,99.99
2018-01-11T03:28:43.121Z,99.99
2018-01-11T03:29:52.812Z,99.99
2018-01-11T03:31:02.252Z,99.99
2018-01-11T03:32:11.948Z,99.99
2018-01-11T03:33:21.887Z,99.99
2018-01-11T03:34:31.841Z,99.99
2018-01-11T03:35:41.272Z,99.99
2018-01-11T03:36:51.217Z,99.99
2018-01-11T03:38:01.166Z,99.99
2018-01-11T03:39:11.117Z,99.99
2018-01-11T03:40:21.065Z,99.99
2018-01-11T03:41:30.753Z,99.99
2018-01-11T03:42:40.454Z,99.99
2018-01-11T03:43:50.401Z,99.99
2018-01-11T03:45:00.092Z,99.99
2018-01-11T03:46:09.537Z,99.99
2018-01-11T03:47:19.277Z,99.99
2018-01-11T03:48:28.962Z,99.99
2018-01-11T03:49:38.901Z,99.99
2018-01-11T03:50:48.846Z,99.99
2018-01-11T03:51:58.791Z,99.99
2018-01-11T03:53:08.235Z,99.99
2018-01-11T03:54:17.930Z,99.99
2018-01-11T03:55:27.879Z,99.99
2018-01-11T03:56:37.565Z,99.99
2018-01-11T03:57:47.260Z,99.99
2018-01-11T03:58:56.954Z,99.99
2018-01-11T04:00:06.645Z,99.99
2018-01-11T04:01:16.083Z,99.99
2018-01-11T04:02:26.086Z,99.99
2018-01-11T04:03:36.023Z,99.99
2018-01-11T04:04:45.960Z,99.99
2018-01-11T04:05:55.647Z,99.99
2018-01-11T04:07:05.338Z,99.99
2018-01-11T04:08:15.282Z,99.99
2018-01-11T04:09:24.973Z,99.99
2018-01-11T04:10:34.921Z,99.99
2018-01-11T04:11:44.869Z,99.99
2018-01-11T04:12:54.822Z,99.99
2018-01-11T04:14:04.786Z,99.99
2018-01-11T04:15:13.956Z,99.99
2018-01-11T04:16:23.657Z,99.99
2018-01-11T04:17:33.629Z,99.99
2018-01-11T04:18:43.640Z,99.99
2018-01-11T04:19:53.322Z,99.99
2018-01-11T04:21:03.269Z,99.99
2018-01-11T04:22:13.216Z,99.99
2018-01-11T04:23:23.167Z,99.99
2018-01-11T04:24:32.855Z,99.99
2018-01-11T04:25:42.805Z,99.99
2018-01-11T04:26:52.800Z,99.99
2018-01-11T04:28:02.497Z,99.99
2018-01-11T04:29:12.442Z,99.99
2018-01-11T04:30:22.398Z,99.99
2018-01-11T04:31:32.345Z,99.99
2018-01-11T04:32:42.036Z,99.99
2018-01-11T04:33:51.978Z,99.99
2018-01-11T04:35:01.941Z,99.99
2018-01-11T04:36:11.644Z,99.99
2018-01-11T04:37:21.606Z,99.99
2018-01-11T04:38:31.554Z,99.99
2018-01-11T04:39:41.548Z,99.99
2018-01-11T04:40:51.493Z,99.99
2018-01-11T04:42:01.433Z,99.99
2018-01-11T04:43:11.388Z,99.99
2018-01-11T04:44:20.820Z,99.99
2018-01-11T04:45:30.763Z,99.99
2018-01-11T04:46:40.710Z,99.99
2018-01-11T04:47:50.902Z,99.99
2018-01-11T04:49:00.857Z,99.99
2018-01-11T04:50:10.558Z,99.99
2018-01-11T04:51:20.500Z,99.99
2018-01-11T04:52:30.459Z,99.99
2018-01-11T04:53:40.439Z,99.99
2018-01-11T04:54:50.184Z,99.99
2018-01-11T04:56:00.141Z,99.99
2018-01-11T04:57:10.085Z,99.99
2018-01-11T04:58:20.066Z,99.99
2018-01-11T04:59:30.018Z,99.99
2018-01-11T05:00:39.970Z,99.99
2018-01-11T05:01:49.661Z,99.99
2018-01-11T05:02:59.602Z,99.99
2018-01-11T05:04:09.036Z,99.99
2018-01-11T05:05:18.471Z,99.99
2018-01-11T05:06:28.407Z,99.99
2018-01-11T05:07:38.105Z,99.99
2018-01-11T05:08:48.049Z,99.99
2018-01-11T05:09:57.994Z,99.99
2018-01-11T05:11:07.949Z,99.99
2018-01-11T05:12:17.663Z,99.99
2018-01-11T05:13:27.415Z,99.99
2018-01-11T05:14:37.362Z,99.99
2018-01-11T05:15:47.309Z,99.99
2018-01-11T05:16:56.742Z,99.99
2018-01-11T05:18:06.182Z,99.99
2018-01-11T05:19:16.159Z,99.99
2018-01-11T05:20:26.105Z,99.99
2018-01-11T05:21:35.537Z,99.99
2018-01-11T05:22:45.226Z,99.99
2018-01-11T05:23:55.179Z,99.99
2018-01-11T05:25:04.874Z,99.99
2018-01-11T05:26:14.316Z,99.99
2018-01-11T05:27:24.253Z,99.99
2018-01-11T05:28:33.948Z,99.99
2018-01-11T05:29:43.896Z,99.99
2018-01-11T05:30:53.580Z,99.99
2018-01-11T05:32:03.279Z,99.99
2018-01-11T05:33:13.240Z,99.99
2018-01-11T05:34:22.937Z,99.99
2018-01-11T05:35:32.622Z,99.99
2018-01-11T05:36:42.587Z,99.99
2018-01-11T05:37:52.281Z,99.99
2018-01-11T05:39:01.982Z,99.99
2018-01-11T05:40:11.927Z,99.99
2018-01-11T05:41:21.872Z,99.99
2018-01-11T05:42:31.558Z,99.99
2018-01-11T05:43:41.499Z,99.99
2018-01-11T05:44:51.439Z,99.99
2018-01-11T05:46:01.386Z,99.99
2018-01-11T05:47:11.082Z,99.99
2018-01-11T05:48:20.515Z,99.99
2018-01-11T05:49:30.212Z,99.99
2018-01-11T05:50:39.942Z,99.99
2018-01-11T05:51:49.882Z,99.99
2018-01-11T05:52:59.588Z,99.99
2018-01-11T05:54:09.540Z,99.99
2018-01-11T05:55:19.480Z,99.99
2018-01-11T05:56:29.169Z,99.99
2018-01-11T05:57:39.112Z,99.99
2018-01-11T05:58:49.060Z,99.99
2018-01-11T05:59:58.478Z,99.99
2018-01-11T06:01:08.450Z,99.99
2018-01-11T06:02:18.395Z,99.99
2018-01-11T06:03:28.091Z,99.99
2018-01-11T06:04:38.034Z,99.99
2018-01-11T06:05:47.722Z,99.99
2018-01-11T06:06:57.730Z,99.99
2018-01-11T06:08:07.422Z,99.99
2018-01-11T06:09:17.131Z,99.99
2018-01-11T06:10:26.898Z,99.99
2018-01-11T06:11:36.588Z,99.99
2018-01-11T06:12:46.531Z,99.99
2018-01-11T06:13:56.480Z,99.99
2018-01-11T06:15:06.170Z,99.99
2018-01-11T06:16:16.113Z,99.99
2018-01-11T06:17:25.803Z,99.99
2018-01-11T06:18:35.749Z,99.99
2018-01-11T06:19:45.196Z,99.85
2018-01-11T06:20:55.156Z,99.1
2018-01-11T06:22:05.110Z,97.87
2018-01-11T06:23:14.814Z,97.39
2018-01-11T06:24:24.494Z,97.49
2018-01-11T06:25:34.182Z,97.2
2018-01-11T06:26:44.135Z,97.49
2018-01-11T06:27:53.825Z,96.92
2018-01-11T06:29:03.768Z,96.45
2018-01-11T06:30:13.717Z,96.73
2018-01-11T06:31:23.678Z,96.83
2018-01-11T06:32:33.368Z,96.35
2018-01-11T06:33:43.324Z,95.78
2018-01-11T06:34:53.283Z,96.16
2018-01-11T06:36:03.229Z,95.59
2018-01-11T06:37:13.169Z,94.65
2018-01-11T06:38:22.862Z,94.84
2018-01-11T06:39:32.544Z,94.27
2018-01-11T06:40:42.524Z,93.8
2018-01-11T06:41:52.481Z,93.32
2018-01-11T06:43:02.189Z,93.13
2018-01-11T06:44:12.142Z,92.85
2018-01-11T06:45:22.079Z,93.04
2018-01-11T06:46:31.758Z,92.47
2018-01-11T06:47:41.455Z,92.19
2018-01-11T06:48:51.371Z,91.72
2018-01-11T06:50:01.331Z,91.62
2018-01-11T06:51:11.302Z,91.15
2018-01-11T06:52:20.988Z,90.11
2018-01-11T06:53:30.703Z,90.2
2018-01-11T06:54:40.658Z,89.35
2018-01-11T06:55:50.879Z,89.16
2018-01-11T06:57:00.828Z,88.97
2018-01-11T06:58:10.531Z,88.4
2018-01-11T06:59:20.492Z,87.27
2018-01-11T07:00:30.449Z,86.79
2018-01-11T07:01:40.140Z,86.22
2018-01-11T07:02:49.846Z,86.13
2018-01-11T07:03:59.278Z,86.32
2018-01-11T07:05:08.981Z,86.04
2018-01-11T07:06:18.932Z,85.47
2018-01-11T07:07:28.887Z,84.42
2018-01-11T07:08:38.845Z,84.33
2018-01-11T07:09:48.791Z,83.95
2018-01-11T07:10:58.499Z,83.58
2018-01-11T07:12:08.464Z,83.2
2018-01-11T07:13:18.431Z,83.01
2018-01-11T07:14:28.381Z,82.63
2018-01-11T07:15:38.074Z,82.15
2018-01-11T07:16:47.822Z,81.87
2018-01-11T07:17:57.764Z,81.96
2018-01-11T07:19:07.730Z,82.06
2018-01-11T07:20:17.732Z,81.59
2018-01-11T07:21:27.693Z,81.3
2018-01-11T07:22:37.644Z,81.02
2018-01-11T07:23:47.592Z,80.64
2018-01-11T07:24:57.555Z,80.64
2018-01-11T07:26:07.004Z,80.26
2018-01-11T07:27:16.693Z,80.26
2018-01-11T07:28:26.155Z,79.69
2018-01-11T07:29:35.857Z,79.69
2018-01-11T07:30:45.294Z,79.6
2018-01-11T07:31:55.257Z,79.5
2018-01-11T07:33:05.239Z,79.6
2018-01-11T07:34:15.273Z,79.5
2018-01-11T07:35:24.983Z,79.32
2018-01-11T07:36:34.670Z,79.22
2018-01-11T07:37:44.685Z,79.13
2018-01-11T07:38:54.647Z,78.69
2018-01-11T07:40:04.344Z,78.85
2018-01-11T07:41:14.292Z,79.17
2018-01-11T07:42:24.009Z,79.03
2018-01-11T07:43:33.951Z,78.37
2018-01-11T07:44:43.920Z,78.27
2018-01-11T07:45:53.614Z,78.56
2018-01-11T07:47:03.596Z,78.08
2018-01-11T07:48:13.546Z,78.08
2018-01-11T07:49:23.254Z,77.75
2018-01-11T07:50:33.222Z,77.42
2018-01-11T07:51:43.054Z,77.42
2018-01-11T07:52:53.026Z,77.23
2018-01-11T07:54:02.455Z,77.56
2018-01-11T07:55:12.435Z,77.18
2018-01-11T07:56:22.393Z,76.7
2018-01-11T07:57:32.100Z,76.51
2018-01-11T07:58:41.789Z,76.32
2018-01-11T07:59:51.745Z,76.61
2018-01-11T08:01:01.685Z,76.14
2018-01-11T08:02:11.642Z,76.32
2018-01-11T08:03:21.596Z,76.32
2018-01-11T08:04:31.568Z,76.32
2018-01-11T08:05:41.275Z,76.23
2018-01-11T08:06:51.226Z,75.85
2018-01-11T08:08:01.189Z,76.04
2018-01-11T08:09:10.878Z,75.95
2018-01-11T08:10:20.831Z,75.76
2018-01-11T08:11:30.808Z,75.95
2018-01-11T08:12:40.505Z,75.95
2018-01-11T08:13:50.250Z,75.95
2018-01-11T08:15:00.212Z,76.23
2018-01-11T08:16:10.174Z,76.14
2018-01-11T08:17:20.121Z,75.95
2018-01-11T08:18:30.077Z,75.95
2018-01-11T08:19:40.042Z,76.04
2018-01-11T08:20:50.020Z,76.04
2018-01-11T08:22:00.027Z,75.95
2018-01-11T08:23:10.006Z,75.85
2018-01-11T08:24:19.957Z,75.85
2018-01-11T08:25:29.696Z,76.32
2018-01-11T08:26:39.381Z,76.99
2018-01-11T08:27:49.113Z,76.8
2018-01-11T08:28:59.068Z,77.18
2018-01-11T08:30:08.789Z,77.56
2018-01-11T08:31:18.736Z,77.27
2018-01-11T08:32:28.705Z,77.18
2018-01-11T08:33:38.648Z,77.27
2018-01-11T08:34:48.650Z,77.37
2018-01-11T08:35:58.340Z,77.4
2018-01-11T08:37:08.483Z,77.4
2018-01-11T08:38:18.446Z,77.78
2018-01-11T08:39:28.394Z,77.69
2018-01-11T08:40:37.851Z,78.07
2018-01-11T08:41:48.077Z,77.97
2018-01-11T08:42:58.050Z,78.41
2018-01-11T08:44:07.989Z,78.16
2018-01-11T08:45:17.940Z,78.35
2018-01-11T08:46:27.894Z,78.26
2018-01-11T08:47:37.336Z,78.07
2018-01-11T08:48:47.042Z,77.97
2018-01-11T08:49:57.022Z,78.16
2018-01-11T08:51:06.996Z,77.78
2018-01-11T08:52:16.996Z,78.07
2018-01-11T08:53:26.952Z,77.97
2018-01-11T08:54:36.923Z,77.78
2018-01-11T08:55:46.918Z,78.07
2018-01-11T08:56:56.933Z,78.45
2018-01-11T08:58:06.920Z,77.97
2018-01-11T08:59:16.913Z,77.78
2018-01-11T09:00:26.673Z,78.26
2018-01-11T09:01:36.648Z,78.54
2018-01-11T09:02:46.625Z,78.35
2018-01-11T09:03:56.579Z,78.83
2018-01-11T09:05:06.285Z,78.73
2018-01-11T09:06:16.266Z,78.45
2018-01-11T09:07:25.965Z,78.26
2018-01-11T09:08:35.980Z,78.45
2018-01-11T09:09:45.959Z,78.54
2018-01-11T09:10:55.929Z,78.16
2018-01-11T09:12:05.916Z,78.26
2018-01-11T09:13:15.866Z,79.21
2018-01-11T09:14:25.841Z,79.21
2018-01-11T09:15:35.550Z,79.3
2018-01-11T09:16:45.495Z,80.53
2018-01-11T09:17:55.475Z,80.53
2018-01-11T09:19:05.445Z,81.67
2018-01-11T09:20:15.172Z,83
2018-01-11T09:21:25.134Z,83.56
2018-01-11T09:22:35.116Z,84.13
2018-01-11T09:23:44.823Z,85.08
2018-01-11T09:24:54.806Z,84.99
2018-01-11T09:26:04.508Z,86.12
2018-01-11T09:27:14.505Z,86.6
2018-01-11T09:28:23.691Z,86.41
2018-01-11T09:29:33.655Z,86.79
2018-01-11T09:30:43.101Z,86.5
2018-01-11T09:31:52.885Z,87.45
2018-01-11T09:33:03.388Z,86.69
2018-01-11T09:34:13.488Z,86.5
2018-01-11T09:35:23.735Z,86.6
2018-01-11T09:36:32.938Z,87.35
2018-01-11T09:37:42.902Z,86.12
2018-01-11T09:38:52.587Z,86.41
2018-01-11T09:40:02.563Z,85.84
2018-01-11T09:41:12.288Z,86.03
2018-01-11T09:42:22.243Z,85.65
2018-01-11T09:43:31.677Z,86.22
2018-01-11T09:44:41.650Z,86.5
2018-01-11T09:45:51.657Z,86.41
2018-01-11T09:47:01.623Z,86.22
2018-01-11T09:48:10.824Z,86.22
2018-01-11T09:49:20.294Z,85.93
2018-01-11T09:50:30.263Z,86.41
2018-01-11T09:51:39.970Z,86.5
2018-01-11T09:52:49.931Z,86.79
2018-01-11T09:53:59.632Z,86.41
2018-01-11T09:55:09.581Z,86.6
2018-01-11T09:56:19.524Z,86.98
2018-01-11T09:57:29.241Z,86.69
2018-01-11T09:58:39.209Z,87.35
2018-01-11T09:59:48.914Z,87.16
2018-01-11T10:00:58.993Z,87.26
2018-01-11T10:02:08.680Z,86.6
2018-01-11T10:03:18.409Z,86.88
2018-01-11T10:04:28.407Z,86.6
2018-01-11T10:05:38.390Z,86.6
2018-01-11T10:06:48.357Z,86.69
2018-01-11T10:07:58.410Z,86.79
2018-01-11T10:09:08.367Z,86.22
2018-01-11T10:10:18.059Z,86.5
2018-01-11T10:11:28.094Z,86.69
2018-01-11T10:12:37.799Z,86.69
2018-01-11T10:13:47.753Z,86.69
2018-01-11T10:14:57.705Z,86.5
2018-01-11T10:16:07.705Z,86.79
2018-01-11T10:17:17.151Z,87.35
2018-01-11T10:18:27.105Z,86.88
2018-01-11T10:19:37.140Z,87.64
2018-01-11T10:20:47.081Z,87.83
2018-01-11T10:21:56.787Z,87.26
2018-01-11T10:23:06.323Z,86.98
2018-01-11T10:24:15.788Z,86.88
2018-01-11T10:25:25.790Z,87.07
2018-01-11T10:26:35.766Z,87.07
2018-01-11T10:27:45.722Z,86.6
2018-01-11T10:28:55.680Z,86.6
2018-01-11T10:30:05.656Z,86.88
2018-01-11T10:31:15.343Z,86.98
2018-01-11T10:32:25.294Z,86.79
2018-01-11T10:33:34.977Z,87.07
2018-01-11T10:34:44.929Z,86.69
2018-01-11T10:35:54.931Z,86.41
2018-01-11T10:37:04.902Z,86.6
2018-01-11T10:38:14.864Z,86.41
2018-01-11T10:39:24.555Z,86.6
2018-01-11T10:40:34.513Z,86.6
2018-01-11T10:41:44.491Z,86.22
2018-01-11T10:42:54.200Z,86.03
2018-01-11T10:44:04.152Z,85.46
2018-01-11T10:45:14.132Z,85.46
2018-01-11T10:46:24.107Z,85.08
2018-01-11T10:47:34.056Z,84.99
2018-01-11T10:48:43.761Z,84.89
2018-01-11T10:49:53.465Z,85.27
2018-01-11T10:51:03.452Z,85.17
2018-01-11T10:52:13.425Z,84.89
2018-01-11T10:53:23.384Z,85.27
2018-01-11T10:54:33.342Z,85.17
2018-01-11T10:55:43.320Z,85.27
2018-01-11T10:56:53.017Z,85.46
2018-01-11T10:58:02.981Z,85.08
2018-01-11T10:59:12.720Z,84.89
2018-01-11T11:00:22.669Z,85.08
2018-01-11T11:01:32.638Z,85.08
2018-01-11T11:02:42.600Z,85.27
2018-01-11T11:03:52.567Z,84.99
2018-01-11T11:05:02.296Z,85.27
2018-01-11T11:06:12.254Z,85.27
2018-01-11T11:07:22.248Z,85.46
2018-01-11T11:08:32.234Z,85.74
2018-01-11T11:09:41.960Z,86.5
2018-01-11T11:10:51.730Z,86.12
2018-01-11T11:12:01.436Z,86.6
2018-01-11T11:13:11.393Z,86.98
2018-01-11T11:14:21.399Z,87.83
2018-01-11T11:15:31.120Z,87.92
2018-01-11T11:16:40.832Z,88.02
2018-01-11T11:17:50.787Z,88.11
2018-01-11T11:19:00.735Z,88.11
2018-01-11T11:20:10.679Z,88.11
2018-01-11T11:21:20.628Z,88.21
2018-01-11T11:22:30.947Z,87.92
2018-01-11T11:23:40.843Z,88.4
2018-01-11T11:24:50.813Z,88.96
2018-01-11T11:26:00.765Z,89.06
2018-01-11T11:27:10.730Z,89.91
2018-01-11T11:28:20.416Z,89.53
2018-01-11T11:29:30.365Z,89.25
2018-01-11T11:30:39.856Z,89.06
2018-01-11T11:31:49.604Z,89.63
2018-01-11T11:32:59.572Z,90.2
2018-01-11T11:34:09.527Z,91.14
2018-01-11T11:35:19.469Z,91.14
2018-01-11T11:36:29.424Z,91.43
2018-01-11T11:37:39.136Z,90.95
2018-01-11T11:38:49.104Z,91.05
2018-01-11T11:39:59.051Z,91.71
2018-01-11T11:41:09.032Z,91.14
2018-01-11T11:42:18.747Z,90.48
2018-01-11T11:43:28.448Z,90.39
2018-01-11T11:44:38.137Z,89.44
2018-01-11T11:45:48.114Z,89.63
2018-01-11T11:46:58.132Z,89.86
2018-01-11T11:48:08.083Z,89.82
2018-01-11T11:49:17.784Z,89.15
2018-01-11T11:50:27.739Z,89.06
2018-01-11T11:51:37.425Z,89.15
2018-01-11T11:52:47.389Z,88.3
2018-01-11T11:53:57.386Z,88.35
2018-01-11T11:55:07.352Z,87.49
2018-01-11T11:56:17.314Z,87.12
2018-01-11T11:57:27.018Z,86.64
2018-01-11T11:58:37.020Z,87.12
2018-01-11T11:59:47.030Z,87.02
2018-01-11T12:00:56.991Z,86.45
2018-01-11T12:02:07.054Z,86.26
2018-01-11T12:03:17.026Z,86.07
2018-01-11T12:04:27.013Z,85.97
2018-01-11T12:05:36.978Z,85.41
2018-01-11T12:06:46.940Z,85.13
2018-01-11T12:07:56.908Z,86.55
2018-01-11T12:09:06.873Z,87.3
2018-01-11T12:10:16.848Z,86.64
2018-01-11T12:11:27.578Z,87.21
2018-01-11T12:12:37.586Z,86.83
2018-01-11T12:13:47.326Z,86.64
2018-01-11T12:14:57.102Z,86.26
2018-01-11T12:16:06.824Z,85.88
2018-01-11T12:17:16.799Z,85.6
2018-01-11T12:18:26.822Z,85.22
2018-01-11T12:19:36.542Z,85.03
2018-01-11T12:20:46.273Z,87.02
2018-01-11T12:21:56.258Z,90.15
2018-01-11T12:23:05.457Z,91.38
2018-01-11T12:24:15.436Z,91.66
2018-01-11T12:25:25.130Z,91
2018-01-11T12:26:35.107Z,90.53
2018-01-11T12:27:45.071Z,90.05
2018-01-11T12:28:54.836Z,90.43
2018-01-11T12:30:04.571Z,89.86
2018-01-11T12:31:14.296Z,89.77
2018-01-11T12:32:24.260Z,89.39
2018-01-11T12:33:33.968Z,88.63
2018-01-11T12:34:43.953Z,87.97
2018-01-11T12:35:53.648Z,87.59
2018-01-11T12:37:03.828Z,87.68
2018-01-11T12:38:13.523Z,87.3
2018-01-11T12:39:23.224Z,86.93
2018-01-11T12:40:33.192Z,87.3
2018-01-11T12:41:42.919Z,86.64
2018-01-11T12:42:52.879Z,85.69
2018-01-11T12:44:02.829Z,85.5
2018-01-11T12:45:12.798Z,85.5
2018-01-11T12:46:22.754Z,85.41
2018-01-11T12:47:32.457Z,85.13
2018-01-11T12:48:42.418Z,85.03
2018-01-11T12:49:52.413Z,85.31
2018-01-11T12:51:02.106Z,86.83
2018-01-11T12:52:11.864Z,87.68
2018-01-11T12:53:21.841Z,87.77
2018-01-11T12:54:31.550Z,87.3
2018-01-11T12:55:40.996Z,88.54
2018-01-11T12:56:50.942Z,91.19
2018-01-11T12:58:00.401Z,94.23
2018-01-11T12:59:10.414Z,94.98
2018-01-11T13:00:20.390Z,96.22
2018-01-11T13:01:30.349Z,96.88
2018-01-11T13:02:40.063Z,98.02
2018-01-11T13:03:50.022Z,99.99
2018-01-11T13:04:59.998Z,99.99
2018-01-11T13:06:09.953Z,99.99
2018-01-11T13:07:19.920Z,99.99
2018-01-11T13:08:29.628Z,99.99
2018-01-11T13:09:39.602Z,99.99
2018-01-11T13:10:49.572Z,99.99
2018-01-11T13:11:59.537Z,99.99
2018-01-11T13:13:09.250Z,99.99
2018-01-11T13:14:19.228Z,99.99
2018-01-11T13:15:29.214Z,99.99
2018-01-11T13:16:39.219Z,99.99
2018-01-11T13:17:49.167Z,98.91
2018-01-11T13:18:59.142Z,98.72
2018-01-11T13:20:09.126Z,97.78
2018-01-11T13:21:18.869Z,96.73
2018-01-11T13:22:28.838Z,95.84
2018-01-11T13:23:38.792Z,96.03
2018-01-11T13:24:48.741Z,95.84
2018-01-11T13:25:58.438Z,94.98
2018-01-11T13:27:08.388Z,94.98
2018-01-11T13:28:18.091Z,94.32
2018-01-11T13:29:27.824Z,94.42
2018-01-11T13:30:37.551Z,94.23
2018-01-11T13:31:47.263Z,93.56
2018-01-11T13:32:57.220Z,92.8
2018-01-11T13:34:06.662Z,92.8
2018-01-11T13:35:16.598Z,92.52
2018-01-11T13:36:26.589Z,92.14
2018-01-11T13:37:36.550Z,92.23
2018-01-11T13:38:46.257Z,92.14
2018-01-11T13:39:55.695Z,92.23
2018-01-11T13:41:05.648Z,91.57
2018-01-11T13:42:15.352Z,91.47
2018-01-11T13:43:25.369Z,91.66
2018-01-11T13:44:35.318Z,91
2018-01-11T13:45:45.275Z,91.28
2018-01-11T13:46:55.001Z,90.62
2018-01-11T13:48:05.006Z,90.15
2018-01-11T13:49:14.701Z,90.53
2018-01-11T13:50:24.420Z,90.62
2018-01-11T13:51:34.383Z,90.15
2018-01-11T13:52:43.883Z,90.01
2018-01-11T13:53:53.857Z,90.34
2018-01-11T13:55:03.821Z,90.24
2018-01-11T13:56:13.777Z,90.05
2018-01-11T13:57:23.466Z,90.53
2018-01-11T13:58:33.174Z,89.67
2018-01-11T13:59:42.883Z,89.48
2018-01-11T14:00:52.621Z,89.67
2018-01-11T14:02:02.569Z,89.2
2018-01-11T14:03:12.546Z,89.29
2018-01-11T14:04:22.552Z,89.01
2018-01-11T14:05:32.252Z,89.01
2018-01-11T14:06:41.952Z,89.29
2018-01-11T14:07:51.676Z,89.01
2018-01-11T14:09:01.120Z,89.11
2018-01-11T14:10:10.824Z,89.29
2018-01-11T14:11:20.835Z,89.01
2018-01-11T14:12:30.789Z,88.82
2018-01-11T14:13:40.558Z,89.2
2018-01-11T14:14:50.254Z,88.82
2018-01-11T14:16:00.255Z,88.44
2018-01-11T14:17:09.962Z,88.35
2018-01-11T14:18:19.986Z,88.35
2018-01-11T14:19:29.679Z,88.35
2018-01-11T14:20:39.368Z,88.06
2018-01-11T14:21:48.811Z,88.06
2018-01-11T14:22:58.776Z,87.87
2018-01-11T14:24:08.741Z,88.06
2018-01-11T14:25:18.176Z,87.87
2018-01-11T14:26:28.125Z,87.68
2018-01-11T14:27:38.067Z,87.3
2018-01-11T14:28:48.032Z,87.12
2018-01-11T14:29:57.731Z,87.21
2018-01-11T14:31:07.792Z,87.68
2018-01-11T14:32:17.500Z,87.49
2018-01-11T14:33:27.486Z,87.4
2018-01-11T14:34:37.184Z,88.54
2018-01-11T14:35:47.139Z,88.73
2018-01-11T14:36:56.865Z,88.82
2018-01-11T14:38:06.852Z,89.01
2018-01-11T14:39:16.818Z,89.96
2018-01-11T14:40:26.787Z,90.43
2018-01-11T14:41:36.756Z,90.72
2018-01-11T14:42:46.453Z,91.57
2018-01-11T14:43:56.163Z,92.52
2018-01-11T14:45:06.121Z,92.8
2018-01-11T14:46:15.822Z,93.27
2018-01-11T14:47:25.527Z,94.98
2018-01-11T14:48:35.496Z,95.07
2018-01-11T14:49:44.976Z,94.79
2018-01-11T14:50:54.929Z,94.98
2018-01-11T14:52:04.986Z,95.17
2018-01-11T14:53:14.996Z,95.26
2018-01-11T14:54:24.704Z,95.93
2018-01-11T14:55:34.407Z,96.88
2018-01-11T14:56:44.379Z,97.07
2018-01-11T14:57:54.328Z,97.16
2018-01-11T14:59:04.295Z,96.78
2018-01-11T15:00:13.735Z,96.69
2018-01-11T15:01:23.706Z,96.12